Marlinton, WV

9:41 AM EDT on August 01, 2014 (GMT -0400)
Ingalls (KHSP) Elev 3793 ft | 37.95 °N, 79.83 °W | Change Station

Current weather conditions updated 6 minutes ago

Light Rain
Light Rain
56 °F
Feels Like 56 °F
N
9
Wind Variable Wind from SSE

Today is forecast to be Cooler than yesterday. Scattered thunderstorms.

Today
High -- | Low -- °F
--% Chance of Precip.
Yesterday
High -- | Low -- °F
Precip. -- in
6:22 AM 8:29 PM
Waxing Crescent, 26% visible
Pressure 30.30 in
Visibility 0.5 miles
Clouds Overcast 100 ft
Dew Point 54 °F
Humidity 94%
Rainfall 0.00 in
Snow Depth Not available.
UV 1 out of 12
Pollen 5.50 out of 12
Air Quality Not available.
Flu Activity Not available.
METAR KHSP 011335Z AUTO 16008KT 1/2SM -RA OVC001 13/12 A3030 RMK AO2 T01320123

More Conditions Fewer Conditions

Pressure 30.30 in
Visibility 0.5 miles
Clouds Overcast 100 ft
Dew Point 54 °F
Humidity 94%
Rainfall 0.00 in
Snow Depth Not available.
UV 1 out of 12
Pollen 5.50 out of 12
Air Quality Not available.
Flu Activity Not available.
METAR KHSP 011335Z AUTO 16008KT 1/2SM -RA OVC001 13/12 A3030 RMK AO2 T01320123

More Conditions Fewer Conditions

10-Day Weather Forecast

Almanac

Astronomy

Aug. 01, 2014 Rise Set
Actual Time 6:22 AM EDT 8:29 PM EDT
Civil Twilight 5:53 AM EDT 8:59 PM EDT
Nautical Twilight 5:17 AM EDT 9:34 PM EDT
Astronomical Twilight 4:38 AM EDT 10:13 PM EDT
Moon 11:39 AM EDT 11:19 PM EDT
Length of Visible Light 15h 05m
Length of Day
14h 07m
Tomorrow will be 1m 53s shorter.
Waxing Crescent, 26% of the Moon is Illuminated
Today
Waxing Crescent
Aug 3
First Quarter
Aug 10
Full
Aug 17
Last Quarter
Aug 25
New

Today's Extremes

State Highs State Lows

Community

WunderPhotos

Upload Photos

1,739,557 photos uploaded!

Nearby

Snow Depth

Station Depth Elevation
No new snow has been reported.

Earthquake Activity

City Distance Mag. Time & Date
No recent earthquake activity has been reported nearby.
Minimum magnitude displayed is 2.5.

Coastal Water Temperatures

Place Temperature
No Stations Reporting

Nearby Weather Stations

Station Location Temp. Dew Point Humidity Wind Precip. Elev Updated Type
KC8LRN and N8SUE, Pocahontas County Hillsboro, WV 63.1 °F 60 °F 91% NNW  at  4.4 mph 0.00 in / hr 2400 ft 9:41 AM EDT Rapid Fire
North of End of the Trail Campground, Neola, WV 63.7 °F 63 °F 99% NE  at  0.0 mph 0.00 in / hr 2126 ft 9:41 AM EDT Rapid Fire
Green Bank Observatory, near 140ft teles, Green Bank, WV 60.6 °F 57 °F 87% ENE  at  0.3 mph 0.00 in / hr 2688 ft 9:40 AM EDT Normal
Arbovale, WV 62.2 °F 62 °F 98% ESE  at  0.0 mph - / hr 2723 ft 9:39 AM EDT Normal
RAWS LIME KILN VA, Warm Springs, VA 61 °F 61 °F 99% North  at  1 mph 0.06 in / hr 2580 ft 9:01 AM EDT MADIS
Anthonys Creek, White Sulphur Springs, WV 65.1 °F 62 °F 91% ESE  at  0.0 mph 0.00 in / hr 2066 ft 9:37 AM EDT Normal
Snowshoe, Snowshoe, WV 57.2 °F 53 °F 87% SSW  at  6.0 mph - / hr 3261 ft 9:39 AM EDT Normal

Show More Stations Show Fewer Stations